首页
METAR-TAF:

METAR-TAF

机场 :

梅赫拉巴德國際機場

德黑兰, 伊朗

纬度: 35-41N, 经度: 051-21E, 海拔: 1204米

当前天气观测

该预报发布于29分钟前的19:00 UTC
静风
温度 7°C
湿度 81%
气压 1023 hPa
能见度10公里或以上
少量云层高于3500英尺
散云层高于20000英尺

METAR: OIII 151900Z 00000KT 9999 FEW035 SCT200 07/04 Q1023 A3021

时间: 22:59 (19:29 UTC)

预报

该预报发布于1小时和44分钟前的17:45 UTC
预报有效从15日的 18点(UTC)到 16日的 24点(UTC)
风速8节,风向
能見度: 8000
少量云层高于3500英尺, 积雨云.
散云层高于4000英尺
多云层高于10000英尺
成为
从 15日的 20点(UTC)到 15日的 22点(UTC)
能見度: 5000
少量云层高于3000英尺, 积雨云.
散云层高于3500英尺
阴天层高于9000英尺
几率 40%
从 15日的 23点(UTC)到 16日的 04点(UTC)
能見度: 3000
轻雾
短暂存在
从 16日的 04点(UTC)到 16日的 12点(UTC)
能見度: 3000
散云层高于3000英尺, 积雨云.
散云层高于3500英尺
阴天层高于9000英尺
成为
从 16日的 16点(UTC)到 16日的 18点(UTC)
少量云层高于3000英尺
散云层高于10000英尺

TAF: OIII 151745Z 1518/1624 10004MPS 8000 FEW035CB SCT040 BKN100 BECMG 1520/1522 5000 RA FEW030CB SCT035 OVC090 PROB40 1523/1604 3000 BR TEMPO 1604/1612 3000 RA SCT030CB SCT035 OVC090 BECMG 1616/1618 FEW030 SCT100

超过4000个机场的气象观测和天气预报(METAR&TAF报告)。

可查询的气象台以黄色和红色小点在地图上表示。

将鼠标移到小点上方,可查看气象台名称。

然后点击查看天气观测和预报。

如需切换地图:点击带黑十字的绿色按钮放大地图;点击带横线的绿色按钮缩小地图;或者点击绿色箭头查看邻近地区的地图。


METAR-TAF: